sensor_id;sensor_type;location;lat;lon;timestamp;pressure;altitude;pressure_sealevel;temperature;humidity
706;BME280;21234;48.690;9.016;2024-01-27T00:01:58;97772.84;;;2.54;100.00
706;BME280;21234;48.690;9.016;2024-01-27T00:04:25;97766.06;;;2.42;100.00
706;BME280;21234;48.690;9.016;2024-01-27T00:06:52;97771.50;;;2.58;100.00
706;BME280;21234;48.690;9.016;2024-01-27T00:09:18;97771.81;;;2.55;100.00
706;BME280;21234;48.690;9.016;2024-01-27T00:11:45;97770.28;;;2.45;100.00
706;BME280;21234;48.690;9.016;2024-01-27T00:14:12;97775.41;;;2.30;100.00
706;BME280;21234;48.690;9.016;2024-01-27T00:16:39;97774.09;;;2.34;100.00
706;BME280;21234;48.690;9.016;2024-01-27T00:19:07;97768.72;;;2.34;100.00
706;BME280;21234;48.690;9.016;2024-01-27T00:21:33;97774.59;;;2.38;100.00
706;BME280;21234;48.690;9.016;2024-01-27T00:24:00;97782.47;;;2.31;100.00
706;BME280;21234;48.690;9.016;2024-01-27T00:26:29;97770.84;;;2.14;100.00
706;BME280;21234;48.690;9.016;2024-01-27T00:28:55;97779.78;;;2.31;100.00
706;BME280;21234;48.690;9.016;2024-01-27T00:31:22;97782.78;;;2.28;100.00
706;BME280;21234;48.690;9.016;2024-01-27T00:33:49;97784.97;;;2.24;100.00
706;BME280;21234;48.690;9.016;2024-01-27T00:36:17;97786.13;;;2.22;100.00
706;BME280;21234;48.690;9.016;2024-01-27T00:38:47;97780.78;;;1.96;100.00
706;BME280;21234;48.690;9.016;2024-01-27T00:41:16;97783.31;;;1.97;100.00
706;BME280;21234;48.690;9.016;2024-01-27T00:43:43;97794.69;;;1.91;100.00
706;BME280;21234;48.690;9.016;2024-01-27T00:46:10;97785.81;;;1.91;100.00
706;BME280;21234;48.690;9.016;2024-01-27T00:48:37;97791.97;;;1.83;100.00
706;BME280;21234;48.690;9.016;2024-01-27T00:51:04;97791.34;;;1.89;100.00
706;BME280;21234;48.690;9.016;2024-01-27T00:53:32;97789.03;;;1.94;100.00
706;BME280;21234;48.690;9.016;2024-01-27T00:55:59;97790.06;;;1.76;100.00
706;BME280;21234;48.690;9.016;2024-01-27T00:58:25;97797.84;;;1.87;100.00
706;BME280;21234;48.690;9.016;2024-01-27T01:00:52;97801.47;;;1.78;100.00
706;BME280;21234;48.690;9.016;2024-01-27T01:03:19;97789.44;;;1.82;100.00
706;BME280;21234;48.690;9.016;2024-01-27T01:05:45;97796.84;;;1.88;100.00
706;BME280;21234;48.690;9.016;2024-01-27T01:08:12;97800.53;;;1.87;100.00
706;BME280;21234;48.690;9.016;2024-01-27T01:10:40;97792.59;;;1.77;100.00
706;BME280;21234;48.690;9.016;2024-01-27T01:13:07;97802.78;;;1.48;100.00
706;BME280;21234;48.690;9.016;2024-01-27T01:15:33;97797.03;;;1.60;100.00
706;BME280;21234;48.690;9.016;2024-01-27T01:18:00;97805.00;;;1.52;100.00
706;BME280;21234;48.690;9.016;2024-01-27T01:20:27;97809.22;;;1.55;100.00
706;BME280;21234;48.690;9.016;2024-01-27T01:22:55;97803.88;;;1.63;100.00
706;BME280;21234;48.690;9.016;2024-01-27T01:25:22;97815.63;;;1.62;100.00
706;BME280;21234;48.690;9.016;2024-01-27T01:27:50;97809.59;;;1.42;100.00
706;BME280;21234;48.690;9.016;2024-01-27T01:30:18;97800.72;;;1.42;100.00
706;BME280;21234;48.690;9.016;2024-01-27T01:32:44;97802.53;;;1.59;100.00
706;BME280;21234;48.690;9.016;2024-01-27T01:35:11;97797.34;;;1.57;100.00
706;BME280;21234;48.690;9.016;2024-01-27T01:37:38;97807.69;;;1.52;100.00
706;BME280;21234;48.690;9.016;2024-01-27T01:40:05;97812.66;;;1.73;100.00
706;BME280;21234;48.690;9.016;2024-01-27T01:42:32;97812.34;;;1.50;100.00
706;BME280;21234;48.690;9.016;2024-01-27T01:45:00;97809.75;;;1.41;100.00
706;BME280;21234;48.690;9.016;2024-01-27T01:47:27;97822.09;;;1.33;100.00
706;BME280;21234;48.690;9.016;2024-01-27T01:49:55;97815.38;;;1.29;100.00
706;BME280;21234;48.690;9.016;2024-01-27T01:52:23;97814.16;;;1.24;100.00
706;BME280;21234;48.690;9.016;2024-01-27T01:54:50;97807.25;;;1.21;100.00
706;BME280;21234;48.690;9.016;2024-01-27T01:57:17;97814.53;;;1.29;100.00
706;BME280;21234;48.690;9.016;2024-01-27T01:59:44;97814.88;;;1.34;100.00
706;BME280;21234;48.690;9.016;2024-01-27T02:02:12;97821.16;;;1.43;100.00
706;BME280;21234;48.690;9.016;2024-01-27T02:04:40;97825.59;;;1.34;100.00
706;BME280;21234;48.690;9.016;2024-01-27T02:07:07;97825.97;;;1.39;100.00
706;BME280;21234;48.690;9.016;2024-01-27T02:09:33;97833.09;;;1.30;100.00
706;BME280;21234;48.690;9.016;2024-01-27T02:12:00;97831.13;;;1.32;100.00
706;BME280;21234;48.690;9.016;2024-01-27T02:14:27;97833.78;;;1.32;100.00
706;BME280;21234;48.690;9.016;2024-01-27T02:16:54;97839.84;;;1.34;100.00
706;BME280;21234;48.690;9.016;2024-01-27T02:19:22;97837.31;;;1.33;100.00
706;BME280;21234;48.690;9.016;2024-01-27T02:21:49;97838.31;;;1.32;100.00
706;BME280;21234;48.690;9.016;2024-01-27T02:24:17;97837.69;;;1.38;100.00
706;BME280;21234;48.690;9.016;2024-01-27T02:26:44;97844.34;;;1.52;100.00
706;BME280;21234;48.690;9.016;2024-01-27T02:29:11;97852.84;;;1.47;100.00
706;BME280;21234;48.690;9.016;2024-01-27T02:31:37;97867.31;;;1.01;100.00
706;BME280;21234;48.690;9.016;2024-01-27T02:34:04;97864.94;;;0.98;100.00
706;BME280;21234;48.690;9.016;2024-01-27T02:36:31;97875.19;;;0.85;100.00
706;BME280;21234;48.690;9.016;2024-01-27T02:38:57;97872.25;;;0.78;100.00
706;BME280;21234;48.690;9.016;2024-01-27T02:41:25;97877.47;;;0.80;100.00
706;BME280;21234;48.690;9.016;2024-01-27T02:43:52;97873.84;;;0.71;100.00
706;BME280;21234;48.690;9.016;2024-01-27T02:46:19;97868.63;;;0.97;100.00
706;BME280;21234;48.690;9.016;2024-01-27T02:48:46;97879.88;;;1.00;100.00
706;BME280;21234;48.690;9.016;2024-01-27T02:51:12;97880.09;;;1.07;100.00
706;BME280;21234;48.690;9.016;2024-01-27T02:53:39;97877.56;;;0.88;100.00
706;BME280;21234;48.690;9.016;2024-01-27T02:56:06;97875.13;;;0.94;100.00
706;BME280;21234;48.690;9.016;2024-01-27T02:58:34;97878.41;;;1.06;100.00
706;BME280;21234;48.690;9.016;2024-01-27T03:01:01;97873.16;;;0.96;100.00
706;BME280;21234;48.690;9.016;2024-01-27T03:03:28;97883.38;;;0.83;100.00
706;BME280;21234;48.690;9.016;2024-01-27T03:05:55;97882.28;;;0.76;100.00
706;BME280;21234;48.690;9.016;2024-01-27T03:08:22;97885.22;;;0.83;100.00
706;BME280;21234;48.690;9.016;2024-01-27T03:10:48;97875.53;;;0.72;100.00
706;BME280;21234;48.690;9.016;2024-01-27T03:13:15;97884.78;;;0.60;100.00
706;BME280;21234;48.690;9.016;2024-01-27T03:15:45;97881.25;;;0.59;100.00
706;BME280;21234;48.690;9.016;2024-01-27T03:18:12;97879.16;;;0.81;100.00
706;BME280;21234;48.690;9.016;2024-01-27T03:20:39;97883.91;;;0.87;100.00
706;BME280;21234;48.690;9.016;2024-01-27T03:23:05;97888.28;;;0.60;100.00
706;BME280;21234;48.690;9.016;2024-01-27T03:25:34;97889.91;;;0.44;100.00
706;BME280;21234;48.690;9.016;2024-01-27T03:28:00;97890.06;;;0.42;100.00
706;BME280;21234;48.690;9.016;2024-01-27T03:30:27;97890.94;;;0.33;100.00
706;BME280;21234;48.690;9.016;2024-01-27T03:32:55;97900.81;;;0.32;100.00
706;BME280;21234;48.690;9.016;2024-01-27T03:35:22;97902.00;;;0.48;100.00
706;BME280;21234;48.690;9.016;2024-01-27T03:37:48;97911.34;;;0.34;100.00
706;BME280;21234;48.690;9.016;2024-01-27T03:40:16;97909.00;;;0.21;100.00
706;BME280;21234;48.690;9.016;2024-01-27T03:42:43;97906.91;;;0.25;100.00
706;BME280;21234;48.690;9.016;2024-01-27T03:45:10;97917.19;;;0.20;100.00
706;BME280;21234;48.690;9.016;2024-01-27T03:47:37;97923.22;;;0.31;100.00
706;BME280;21234;48.690;9.016;2024-01-27T03:50:06;97927.72;;;0.31;100.00
706;BME280;21234;48.690;9.016;2024-01-27T03:52:33;97927.88;;;0.20;100.00
706;BME280;21234;48.690;9.016;2024-01-27T03:55:00;97926.47;;;0.16;100.00
706;BME280;21234;48.690;9.016;2024-01-27T03:57:27;97925.22;;;0.10;100.00
706;BME280;21234;48.690;9.016;2024-01-27T03:59:54;97922.97;;;0.06;100.00
706;BME280;21234;48.690;9.016;2024-01-27T04:02:20;97920.03;;;0.46;100.00
706;BME280;21234;48.690;9.016;2024-01-27T04:04:47;97920.13;;;0.26;100.00
706;BME280;21234;48.690;9.016;2024-01-27T04:07:15;97920.22;;;-0.03;100.00
706;BME280;21234;48.690;9.016;2024-01-27T04:09:42;97926.78;;;0.13;100.00
706;BME280;21234;48.690;9.016;2024-01-27T04:12:09;97919.06;;;0.00;100.00
706;BME280;21234;48.690;9.016;2024-01-27T04:14:36;97927.25;;;-0.02;100.00
706;BME280;21234;48.690;9.016;2024-01-27T04:17:03;97926.06;;;0.01;100.00
706;BME280;21234;48.690;9.016;2024-01-27T04:19:30;97922.00;;;0.07;100.00
706;BME280;21234;48.690;9.016;2024-01-27T04:21:57;97923.38;;;0.20;100.00
706;BME280;21234;48.690;9.016;2024-01-27T04:24:25;97928.16;;;0.17;100.00
706;BME280;21234;48.690;9.016;2024-01-27T04:26:52;97927.47;;;0.05;100.00
706;BME280;21234;48.690;9.016;2024-01-27T04:29:18;97926.41;;;-0.12;100.00
706;BME280;21234;48.690;9.016;2024-01-27T04:31:45;97931.69;;;0.08;100.00
706;BME280;21234;48.690;9.016;2024-01-27T04:34:12;97937.59;;;0.21;100.00
706;BME280;21234;48.690;9.016;2024-01-27T04:36:38;97930.97;;;0.25;100.00
706;BME280;21234;48.690;9.016;2024-01-27T04:39:06;97940.25;;;0.30;100.00
706;BME280;21234;48.690;9.016;2024-01-27T04:41:34;97937.44;;;0.32;100.00
706;BME280;21234;48.690;9.016;2024-01-27T04:44:01;97935.50;;;0.15;100.00
706;BME280;21234;48.690;9.016;2024-01-27T04:46:27;97931.97;;;0.24;100.00
706;BME280;21234;48.690;9.016;2024-01-27T04:48:54;97944.41;;;0.43;100.00
706;BME280;21234;48.690;9.016;2024-01-27T04:51:21;97938.00;;;0.26;100.00
706;BME280;21234;48.690;9.016;2024-01-27T04:53:48;97939.84;;;0.16;100.00
706;BME280;21234;48.690;9.016;2024-01-27T04:56:15;97936.31;;;0.25;100.00
706;BME280;21234;48.690;9.016;2024-01-27T04:58:43;97937.59;;;0.21;100.00
706;BME280;21234;48.690;9.016;2024-01-27T05:01:09;97935.06;;;0.10;100.00
706;BME280;21234;48.690;9.016;2024-01-27T05:03:36;97932.69;;;0.07;100.00
706;BME280;21234;48.690;9.016;2024-01-27T05:06:03;97937.47;;;0.13;100.00
706;BME280;21234;48.690;9.016;2024-01-27T05:08:30;97937.03;;;0.17;100.00
706;BME280;21234;48.690;9.016;2024-01-27T05:10:56;97933.09;;;0.21;100.00
706;BME280;21234;48.690;9.016;2024-01-27T05:13:23;97935.00;;;-0.08;100.00
706;BME280;21234;48.690;9.016;2024-01-27T05:15:51;97931.31;;;-0.07;100.00
706;BME280;21234;48.690;9.016;2024-01-27T05:18:18;97934.94;;;0.02;100.00
706;BME280;21234;48.690;9.016;2024-01-27T05:20:44;97937.72;;;0.19;100.00
706;BME280;21234;48.690;9.016;2024-01-27T05:23:11;97945.34;;;0.05;100.00
706;BME280;21234;48.690;9.016;2024-01-27T05:25:38;97938.88;;;0.17;100.00
706;BME280;21234;48.690;9.016;2024-01-27T05:28:05;97935.22;;;0.08;100.00
706;BME280;21234;48.690;9.016;2024-01-27T05:30:33;97938.88;;;0.07;100.00
706;BME280;21234;48.690;9.016;2024-01-27T05:33:01;97938.03;;;0.16;100.00
706;BME280;21234;48.690;9.016;2024-01-27T05:35:27;97948.50;;;-0.10;100.00
706;BME280;21234;48.690;9.016;2024-01-27T05:37:57;97946.47;;;0.02;100.00
706;BME280;21234;48.690;9.016;2024-01-27T05:40:27;97940.84;;;0.05;100.00
706;BME280;21234;48.690;9.016;2024-01-27T05:42:54;97937.38;;;-0.05;100.00
706;BME280;21234;48.690;9.016;2024-01-27T05:45:21;97935.78;;;0.02;100.00
706;BME280;21234;48.690;9.016;2024-01-27T05:47:48;97939.63;;;-0.20;100.00
706;BME280;21234;48.690;9.016;2024-01-27T05:50:17;97933.09;;;0.12;100.00
706;BME280;21234;48.690;9.016;2024-01-27T05:52:43;97936.53;;;-0.06;100.00
706;BME280;21234;48.690;9.016;2024-01-27T05:55:10;97929.66;;;-0.18;100.00
706;BME280;21234;48.690;9.016;2024-01-27T05:57:38;97939.06;;;-0.14;100.00
706;BME280;21234;48.690;9.016;2024-01-27T06:00:06;97943.03;;;-0.37;100.00
706;BME280;21234;48.690;9.016;2024-01-27T06:02:34;97939.34;;;-0.07;100.00
706;BME280;21234;48.690;9.016;2024-01-27T06:05:01;97941.19;;;-0.27;100.00
706;BME280;21234;48.690;9.016;2024-01-27T06:07:29;97944.28;;;-0.03;100.00
706;BME280;21234;48.690;9.016;2024-01-27T06:09:57;97941.47;;;-0.11;100.00
706;BME280;21234;48.690;9.016;2024-01-27T06:12:24;97940.94;;;-0.43;100.00
706;BME280;21234;48.690;9.016;2024-01-27T06:14:53;97944.03;;;-0.38;100.00
706;BME280;21234;48.690;9.016;2024-01-27T06:17:23;97937.94;;;-0.30;100.00
706;BME280;21234;48.690;9.016;2024-01-27T06:19:50;97942.91;;;-0.36;100.00
706;BME280;21234;48.690;9.016;2024-01-27T06:22:18;97950.06;;;-0.46;100.00
706;BME280;21234;48.690;9.016;2024-01-27T06:24:46;97949.19;;;-0.27;100.00
706;BME280;21234;48.690;9.016;2024-01-27T06:27:13;97957.63;;;-0.12;100.00
706;BME280;21234;48.690;9.016;2024-01-27T06:29:40;97963.25;;;-0.25;100.00
706;BME280;21234;48.690;9.016;2024-01-27T06:32:07;97952.72;;;-0.46;100.00
706;BME280;21234;48.690;9.016;2024-01-27T06:34:33;97961.59;;;-0.36;100.00
706;BME280;21234;48.690;9.016;2024-01-27T06:37:00;97970.16;;;-0.51;100.00
706;BME280;21234;48.690;9.016;2024-01-27T06:39:27;97970.31;;;-0.53;100.00
706;BME280;21234;48.690;9.016;2024-01-27T06:41:56;97981.69;;;-0.51;100.00
706;BME280;21234;48.690;9.016;2024-01-27T06:44:22;97971.56;;;-0.47;100.00
706;BME280;21234;48.690;9.016;2024-01-27T06:46:49;97971.56;;;-0.47;100.00
706;BME280;21234;48.690;9.016;2024-01-27T06:49:16;97974.25;;;-0.47;100.00
706;BME280;21234;48.690;9.016;2024-01-27T06:51:43;97979.03;;;-0.51;100.00
706;BME280;21234;48.690;9.016;2024-01-27T06:54:10;97978.59;;;-0.46;100.00
706;BME280;21234;48.690;9.016;2024-01-27T06:56:36;97977.91;;;-0.39;100.00
706;BME280;21234;48.690;9.016;2024-01-27T06:59:05;97975.94;;;-0.37;100.00
706;BME280;21234;48.690;9.016;2024-01-27T07:01:31;97981.97;;;-0.54;100.00
706;BME280;21234;48.690;9.016;2024-01-27T07:03:58;97987.59;;;-0.66;100.00
706;BME280;21234;48.690;9.016;2024-01-27T07:06:25;97979.03;;;-0.70;100.00
706;BME280;21234;48.690;9.016;2024-01-27T07:08:51;97979.28;;;-0.73;100.00
706;BME280;21234;48.690;9.016;2024-01-27T07:11:18;97977.75;;;-0.47;100.00
706;BME280;21234;48.690;9.016;2024-01-27T07:13:45;97982.13;;;-0.36;100.00
706;BME280;21234;48.690;9.016;2024-01-27T07:16:13;97977.75;;;-0.27;100.00
706;BME280;21234;48.690;9.016;2024-01-27T07:18:40;97986.63;;;-0.08;100.00
706;BME280;21234;48.690;9.016;2024-01-27T07:21:06;97985.34;;;-0.23;100.00
706;BME280;21234;48.690;9.016;2024-01-27T07:23:33;97986.34;;;-0.33;100.00
706;BME280;21234;48.690;9.016;2024-01-27T07:26:00;97984.53;;;-0.33;100.00
706;BME280;21234;48.690;9.016;2024-01-27T07:28:28;97975.09;;;-0.18;100.00
706;BME280;21234;48.690;9.016;2024-01-27T07:30:56;97975.88;;;0.31;100.00
706;BME280;21234;48.690;9.016;2024-01-27T07:33:24;97981.69;;;0.91;99.02
706;BME280;21234;48.690;9.016;2024-01-27T07:35:50;97982.25;;;1.22;96.23
706;BME280;21234;48.690;9.016;2024-01-27T07:38:18;97978.38;;;1.07;94.65
706;BME280;21234;48.690;9.016;2024-01-27T07:40:46;97977.81;;;0.76;97.24
706;BME280;21234;48.690;9.016;2024-01-27T07:43:15;97979.47;;;0.49;99.12
706;BME280;21234;48.690;9.016;2024-01-27T07:45:42;97976.34;;;1.36;95.96
706;BME280;21234;48.690;9.016;2024-01-27T07:48:11;97981.53;;;2.26;88.79
706;BME280;21234;48.690;9.016;2024-01-27T07:50:40;97968.28;;;2.25;87.35
706;BME280;21234;48.690;9.016;2024-01-27T07:53:11;97981.66;;;2.43;87.63
706;BME280;21234;48.690;9.016;2024-01-27T07:55:38;97979.38;;;2.30;86.94
706;BME280;21234;48.690;9.016;2024-01-27T07:58:07;97978.47;;;1.60;91.64
706;BME280;21234;48.690;9.016;2024-01-27T08:00:35;97973.41;;;1.12;95.33
706;BME280;21234;48.690;9.016;2024-01-27T08:03:02;97977.53;;;0.79;98.40
706;BME280;21234;48.690;9.016;2024-01-27T08:05:29;97975.13;;;0.76;98.98
706;BME280;21234;48.690;9.016;2024-01-27T08:07:57;97982.00;;;1.33;98.25
706;BME280;21234;48.690;9.016;2024-01-27T08:10:23;97968.50;;;2.57;91.22
706;BME280;21234;48.690;9.016;2024-01-27T08:12:50;97969.47;;;3.24;88.30
706;BME280;21234;48.690;9.016;2024-01-27T08:15:16;97959.63;;;3.49;83.63
706;BME280;21234;48.690;9.016;2024-01-27T08:17:43;97966.81;;;3.41;83.52
706;BME280;21234;48.690;9.016;2024-01-27T08:20:10;97975.69;;;3.25;83.60
706;BME280;21234;48.690;9.016;2024-01-27T08:22:37;97976.50;;;3.25;83.38
706;BME280;21234;48.690;9.016;2024-01-27T08:25:06;97979.44;;;2.98;85.22
706;BME280;21234;48.690;9.016;2024-01-27T08:27:33;97977.13;;;2.43;88.76
706;BME280;21234;48.690;9.016;2024-01-27T08:30:00;97963.47;;;2.11;91.60
706;BME280;21234;48.690;9.016;2024-01-27T08:32:27;97955.66;;;1.99;93.17
706;BME280;21234;48.690;9.016;2024-01-27T08:34:53;97960.59;;;1.86;95.39
706;BME280;21234;48.690;9.016;2024-01-27T08:37:20;97971.09;;;1.80;95.12
706;BME280;21234;48.690;9.016;2024-01-27T08:39:47;97971.25;;;1.78;95.27
706;BME280;21234;48.690;9.016;2024-01-27T08:42:17;97959.75;;;1.50;96.44
706;BME280;21234;48.690;9.016;2024-01-27T08:44:44;97956.22;;;1.32;99.62
706;BME280;21234;48.690;9.016;2024-01-27T08:47:11;97949.66;;;1.26;100.00
706;BME280;21234;48.690;9.016;2024-01-27T08:49:37;97951.84;;;1.31;100.00
706;BME280;21234;48.690;9.016;2024-01-27T08:52:04;97962.88;;;1.28;100.00
706;BME280;21234;48.690;9.016;2024-01-27T08:54:31;97958.19;;;1.12;100.00
706;BME280;21234;48.690;9.016;2024-01-27T08:56:58;97963.94;;;1.17;100.00
706;BME280;21234;48.690;9.016;2024-01-27T08:59:26;97963.34;;;1.23;100.00
706;BME280;21234;48.690;9.016;2024-01-27T09:01:53;97967.69;;;1.24;100.00
706;BME280;21234;48.690;9.016;2024-01-27T09:04:19;97962.75;;;1.29;100.00
706;BME280;21234;48.690;9.016;2024-01-27T09:06:46;97958.72;;;1.33;100.00
706;BME280;21234;48.690;9.016;2024-01-27T09:09:13;97958.03;;;1.31;100.00
706;BME280;21234;48.690;9.016;2024-01-27T09:11:39;97963.66;;;1.38;100.00
706;BME280;21234;48.690;9.016;2024-01-27T09:14:06;97959.34;;;1.63;100.00
706;BME280;21234;48.690;9.016;2024-01-27T09:16:34;97968.44;;;1.62;100.00
706;BME280;21234;48.690;9.016;2024-01-27T09:19:03;97976.13;;;1.65;100.00
706;BME280;21234;48.690;9.016;2024-01-27T09:21:31;97982.50;;;1.64;100.00
706;BME280;21234;48.690;9.016;2024-01-27T09:23:58;97984.81;;;1.77;100.00
706;BME280;21234;48.690;9.016;2024-01-27T09:26:26;97983.44;;;1.90;100.00
706;BME280;21234;48.690;9.016;2024-01-27T09:28:53;97970.81;;;2.09;100.00
706;BME280;21234;48.690;9.016;2024-01-27T09:31:21;97982.00;;;2.22;100.00
706;BME280;21234;48.690;9.016;2024-01-27T09:33:50;97985.94;;;2.35;100.00
706;BME280;21234;48.690;9.016;2024-01-27T09:36:18;97997.38;;;2.38;100.00
706;BME280;21234;48.690;9.016;2024-01-27T09:38:45;97988.53;;;2.45;100.00
706;BME280;21234;48.690;9.016;2024-01-27T09:41:13;97987.38;;;2.74;99.49
706;BME280;21234;48.690;9.016;2024-01-27T09:43:42;97999.88;;;2.57;99.73
706;BME280;21234;48.690;9.016;2024-01-27T09:46:10;98000.06;;;2.63;100.00
706;BME280;21234;48.690;9.016;2024-01-27T09:48:37;97991.91;;;2.73;100.00
706;BME280;21234;48.690;9.016;2024-01-27T09:51:07;97994.13;;;2.78;99.09
706;BME280;21234;48.690;9.016;2024-01-27T09:53:35;97993.53;;;2.66;98.88
706;BME280;21234;48.690;9.016;2024-01-27T09:56:02;97991.38;;;2.69;98.70
706;BME280;21234;48.690;9.016;2024-01-27T09:58:30;98001.06;;;2.62;100.00
706;BME280;21234;48.690;9.016;2024-01-27T10:00:59;97998.13;;;2.74;100.00
706;BME280;21234;48.690;9.016;2024-01-27T10:03:27;97997.88;;;2.93;99.75
706;BME280;21234;48.690;9.016;2024-01-27T10:05:56;97997.22;;;2.91;98.99
706;BME280;21234;48.690;9.016;2024-01-27T10:08:24;98002.84;;;3.14;98.41
706;BME280;21234;48.690;9.016;2024-01-27T10:10:54;97999.22;;;3.23;97.99
706;BME280;21234;48.690;9.016;2024-01-27T10:13:21;97994.34;;;3.34;97.09
706;BME280;21234;48.690;9.016;2024-01-27T10:15:59;97987.00;;;3.45;95.80
706;BME280;21234;48.690;9.016;2024-01-27T10:18:28;97989.72;;;3.61;96.56
706;BME280;21234;48.690;9.016;2024-01-27T10:20:57;97998.47;;;3.55;91.86
706;BME280;21234;48.690;9.016;2024-01-27T10:23:28;97995.44;;;3.66;93.47
706;BME280;21234;48.690;9.016;2024-01-27T10:25:57;98003.00;;;3.54;94.72
706;BME280;21234;48.690;9.016;2024-01-27T10:28:28;98003.69;;;3.64;94.29
706;BME280;21234;48.690;9.016;2024-01-27T10:31:07;98005.97;;;3.43;93.48
706;BME280;21234;48.690;9.016;2024-01-27T10:33:34;97992.19;;;3.38;94.09
706;BME280;21234;48.690;9.016;2024-01-27T10:36:01;97994.41;;;3.51;92.60
706;BME280;21234;48.690;9.016;2024-01-27T10:38:35;97988.25;;;3.75;92.20
706;BME280;21234;48.690;9.016;2024-01-27T10:41:07;97975.84;;;3.90;90.46
706;BME280;21234;48.690;9.016;2024-01-27T10:43:35;97974.81;;;3.99;90.35
706;BME280;21234;48.690;9.016;2024-01-27T10:46:03;97966.09;;;4.21;89.76
706;BME280;21234;48.690;9.016;2024-01-27T10:48:32;97961.03;;;4.02;87.22
706;BME280;21234;48.690;9.016;2024-01-27T10:51:02;97955.31;;;4.21;88.06
706;BME280;21234;48.690;9.016;2024-01-27T10:53:35;97953.09;;;4.33;87.00
706;BME280;21234;48.690;9.016;2024-01-27T10:56:03;97955.63;;;4.43;87.46
706;BME280;21234;48.690;9.016;2024-01-27T10:58:34;97948.88;;;4.55;87.49
706;BME280;21234;48.690;9.016;2024-01-27T11:01:07;97942.78;;;4.61;87.68
706;BME280;21234;48.690;9.016;2024-01-27T11:03:38;97943.28;;;4.56;86.48
706;BME280;21234;48.690;9.016;2024-01-27T11:06:05;97940.25;;;4.59;87.97
706;BME280;21234;48.690;9.016;2024-01-27T11:08:34;97939.22;;;4.77;88.45
706;BME280;21234;48.690;9.016;2024-01-27T11:11:03;97939.06;;;4.62;86.78
706;BME280;21234;48.690;9.016;2024-01-27T11:13:32;97940.06;;;4.69;88.62
706;BME280;21234;48.690;9.016;2024-01-27T11:15:59;97936.69;;;4.75;87.54
706;BME280;21234;48.690;9.016;2024-01-27T11:18:26;97936.19;;;4.80;86.30
706;BME280;21234;48.690;9.016;2024-01-27T11:20:53;97941.66;;;4.47;86.76
706;BME280;21234;48.690;9.016;2024-01-27T11:23:20;97931.50;;;4.57;87.05
706;BME280;21234;48.690;9.016;2024-01-27T11:25:50;97929.19;;;4.38;85.44
706;BME280;21234;48.690;9.016;2024-01-27T11:28:29;97925.28;;;4.57;86.63
706;BME280;21234;48.690;9.016;2024-01-27T11:30:56;97931.66;;;4.56;85.87
706;BME280;21234;48.690;9.016;2024-01-27T11:33:29;97932.31;;;4.66;84.92
706;BME280;21234;48.690;9.016;2024-01-27T11:36:01;97924.72;;;4.86;86.97
706;BME280;21234;48.690;9.016;2024-01-27T11:38:30;97926.38;;;4.87;85.91
706;BME280;21234;48.690;9.016;2024-01-27T11:41:00;97927.75;;;4.83;84.45
706;BME280;21234;48.690;9.016;2024-01-27T11:43:27;97930.13;;;4.78;85.58
706;BME280;21234;48.690;9.016;2024-01-27T11:45:57;97924.41;;;4.72;85.32
706;BME280;21234;48.690;9.016;2024-01-27T11:48:24;97934.00;;;4.75;82.96
706;BME280;21234;48.690;9.016;2024-01-27T11:51:03;97936.13;;;4.88;83.47
706;BME280;21234;48.690;9.016;2024-01-27T11:53:29;97935.22;;;5.03;84.01
706;BME280;21234;48.690;9.016;2024-01-27T11:55:56;97945.41;;;5.24;84.86
706;BME280;21234;48.690;9.016;2024-01-27T11:58:26;97946.25;;;5.25;81.63
706;BME280;21234;48.690;9.016;2024-01-27T12:00:53;97932.59;;;5.26;81.94
706;BME280;21234;48.690;9.016;2024-01-27T12:03:22;97939.09;;;5.09;80.19
706;BME280;21234;48.690;9.016;2024-01-27T12:05:50;97929.28;;;5.16;79.32
706;BME280;21234;48.690;9.016;2024-01-27T12:08:18;97917.88;;;5.06;76.65
706;BME280;21234;48.690;9.016;2024-01-27T12:10:45;97912.81;;;5.11;75.89
706;BME280;21234;48.690;9.016;2024-01-27T12:13:12;97916.75;;;5.23;77.04
706;BME280;21234;48.690;9.016;2024-01-27T12:15:43;97912.66;;;5.35;75.86
706;BME280;21234;48.690;9.016;2024-01-27T12:18:12;97913.09;;;5.47;77.43
706;BME280;21234;48.690;9.016;2024-01-27T12:20:41;97917.97;;;5.52;75.91
706;BME280;21234;48.690;9.016;2024-01-27T12:23:33;97908.25;;;5.65;74.42
706;BME280;21234;48.690;9.016;2024-01-27T12:26:06;97894.16;;;5.78;74.12
706;BME280;21234;48.690;9.016;2024-01-27T12:28:46;97893.88;;;5.73;73.24
706;BME280;21234;48.690;9.016;2024-01-27T12:31:18;97891.94;;;5.82;73.59
706;BME280;21234;48.690;9.016;2024-01-27T12:33:51;97882.41;;;5.71;72.48
706;BME280;21234;48.690;9.016;2024-01-27T12:36:20;97879.91;;;5.69;73.17
706;BME280;21234;48.690;9.016;2024-01-27T12:38:58;97875.63;;;5.75;72.95
706;BME280;21234;48.690;9.016;2024-01-27T12:41:29;97873.78;;;5.76;71.32
706;BME280;21234;48.690;9.016;2024-01-27T12:43:58;97867.34;;;5.99;72.60
706;BME280;21234;48.690;9.016;2024-01-27T12:46:26;97864.59;;;6.07;72.73
706;BME280;21234;48.690;9.016;2024-01-27T12:48:53;97861.78;;;6.01;66.04
706;BME280;21234;48.690;9.016;2024-01-27T12:51:21;97857.47;;;5.92;62.26
706;BME280;21234;48.690;9.016;2024-01-27T12:53:48;97864.47;;;6.01;62.42
706;BME280;21234;48.690;9.016;2024-01-27T12:56:15;97857.13;;;5.87;60.78
706;BME280;21234;48.690;9.016;2024-01-27T12:58:42;97864.72;;;5.91;60.53
706;BME280;21234;48.690;9.016;2024-01-27T13:01:09;97862.97;;;5.98;65.45
706;BME280;21234;48.690;9.016;2024-01-27T13:03:38;97865.13;;;6.03;64.10
706;BME280;21234;48.690;9.016;2024-01-27T13:06:06;97871.56;;;6.02;60.25
706;BME280;21234;48.690;9.016;2024-01-27T13:08:33;97864.78;;;6.06;60.75
706;BME280;21234;48.690;9.016;2024-01-27T13:11:01;97863.09;;;6.05;60.20
706;BME280;21234;48.690;9.016;2024-01-27T13:13:28;97856.03;;;6.19;62.41
706;BME280;21234;48.690;9.016;2024-01-27T13:15:54;97868.25;;;6.29;60.30
706;BME280;21234;48.690;9.016;2024-01-27T13:18:21;97865.72;;;6.28;56.71
706;BME280;21234;48.690;9.016;2024-01-27T13:20:50;97860.81;;;6.31;59.87
706;BME280;21234;48.690;9.016;2024-01-27T13:23:17;97861.28;;;6.35;56.58
706;BME280;21234;48.690;9.016;2024-01-27T13:25:44;97852.31;;;6.34;55.63
706;BME280;21234;48.690;9.016;2024-01-27T13:28:11;97849.63;;;6.34;54.38